createdAt,value
2023-03-31T00:02:13.329Z,98.71
2023-03-31T00:04:46.733Z,98.66
2023-03-31T00:07:16.434Z,98.31
2023-03-31T00:09:46.667Z,98.10
2023-03-31T00:12:17.246Z,97.95
2023-03-31T00:14:44.662Z,97.66
2023-03-31T00:17:12.184Z,98.13
2023-03-31T00:19:41.741Z,97.88
2023-03-31T00:22:09.328Z,98.01
2023-03-31T00:24:36.681Z,97.86
2023-03-31T00:27:05.446Z,97.96
2023-03-31T00:29:33.597Z,97.17
2023-03-31T00:32:01.462Z,97.78
2023-03-31T00:34:28.563Z,97.97
2023-03-31T00:36:57.915Z,98.42
2023-03-31T00:39:25.057Z,98.20
2023-03-31T00:41:52.235Z,98.86
2023-03-31T00:44:27.691Z,99.10
2023-03-31T00:47:20.123Z,98.79
2023-03-31T00:49:50.623Z,98.29
2023-03-31T00:52:21.934Z,99.32
2023-03-31T00:54:54.419Z,100.00
2023-03-31T00:57:23.855Z,100.00
2023-03-31T00:59:57.414Z,100.00
2023-03-31T01:02:28.944Z,100.00
2023-03-31T01:04:59.585Z,100.00
2023-03-31T01:07:46.379Z,100.00
2023-03-31T01:10:14.494Z,100.00
2023-03-31T01:12:46.032Z,100.00
2023-03-31T01:15:14.844Z,100.00
2023-03-31T01:17:47.523Z,100.00
2023-03-31T01:20:38.587Z,100.00
2023-03-31T01:23:20.498Z,100.00
2023-03-31T01:26:01.484Z,100.00
2023-03-31T01:28:38.851Z,100.00
2023-03-31T01:31:14.969Z,100.00
2023-03-31T01:34:21.060Z,100.00
2023-03-31T01:37:11.472Z,100.00
2023-03-31T01:40:16.313Z,100.00
2023-03-31T01:42:57.622Z,100.00
2023-03-31T01:45:57.642Z,100.00
2023-03-31T01:48:49.199Z,100.00
2023-03-31T01:51:22.695Z,100.00
2023-03-31T01:54:19.200Z,100.00
2023-03-31T01:57:19.359Z,100.00
2023-03-31T02:00:09.739Z,100.00
2023-03-31T02:02:41.199Z,100.00
2023-03-31T02:05:16.020Z,100.00
2023-03-31T02:08:06.522Z,100.00
2023-03-31T02:10:35.370Z,100.00
2023-03-31T02:13:04.120Z,100.00
2023-03-31T02:15:38.194Z,100.00
2023-03-31T02:18:11.340Z,100.00
2023-03-31T02:20:43.773Z,100.00
2023-03-31T02:23:14.016Z,100.00
2023-03-31T02:25:53.737Z,100.00
2023-03-31T02:28:26.500Z,100.00
2023-03-31T02:31:07.166Z,100.00
2023-03-31T02:33:34.214Z,100.00
2023-03-31T02:36:01.353Z,100.00
2023-03-31T02:38:31.643Z,100.00
2023-03-31T02:40:58.901Z,100.00
2023-03-31T02:43:26.665Z,100.00
2023-03-31T02:45:53.571Z,100.00
2023-03-31T02:48:25.991Z,100.00
2023-03-31T02:51:08.735Z,100.00
2023-03-31T02:53:50.918Z,100.00
2023-03-31T02:56:33.254Z,100.00
2023-03-31T02:59:26.004Z,100.00
2023-03-31T03:02:01.811Z,100.00
2023-03-31T03:04:49.792Z,100.00
2023-03-31T03:07:42.850Z,100.00
2023-03-31T03:10:36.502Z,100.00
2023-03-31T03:13:19.315Z,100.00
2023-03-31T03:15:50.870Z,100.00
2023-03-31T03:18:18.378Z,100.00
2023-03-31T03:20:51.033Z,100.00
2023-03-31T03:23:18.728Z,100.00
2023-03-31T03:25:46.985Z,100.00
2023-03-31T03:28:14.166Z,100.00
2023-03-31T03:30:41.402Z,100.00
2023-03-31T03:33:08.500Z,100.00
2023-03-31T03:35:36.252Z,100.00
2023-03-31T03:38:03.494Z,100.00
2023-03-31T03:40:30.803Z,100.00
2023-03-31T03:42:57.933Z,100.00
2023-03-31T03:45:25.696Z,100.00
2023-03-31T03:47:52.904Z,100.00
2023-03-31T03:50:19.866Z,100.00
2023-03-31T03:52:46.844Z,100.00
2023-03-31T03:55:14.160Z,100.00
2023-03-31T03:57:41.192Z,100.00
2023-03-31T04:00:12.483Z,100.00
2023-03-31T04:02:40.583Z,100.00
2023-03-31T04:05:08.084Z,100.00
2023-03-31T04:07:35.481Z,100.00
2023-03-31T04:10:03.339Z,100.00
2023-03-31T04:12:30.965Z,100.00
2023-03-31T04:14:58.229Z,100.00
2023-03-31T04:17:32.584Z,100.00
2023-03-31T04:20:06.026Z,100.00
2023-03-31T04:22:35.529Z,100.00
2023-03-31T04:25:04.932Z,100.00
2023-03-31T04:27:35.154Z,100.00
2023-03-31T04:30:02.463Z,100.00
2023-03-31T04:32:33.061Z,100.00
2023-03-31T04:35:03.045Z,100.00
2023-03-31T04:37:34.972Z,100.00
2023-03-31T04:40:08.797Z,100.00
2023-03-31T04:42:36.593Z,100.00
2023-03-31T04:45:04.454Z,100.00
2023-03-31T04:47:31.842Z,100.00
2023-03-31T04:49:58.867Z,100.00
2023-03-31T04:52:26.065Z,100.00
2023-03-31T04:54:52.915Z,100.00
2023-03-31T04:57:21.336Z,100.00
2023-03-31T04:59:48.237Z,100.00
2023-03-31T05:02:25.278Z,100.00
2023-03-31T05:04:53.767Z,100.00
2023-03-31T05:07:20.987Z,100.00
2023-03-31T05:09:47.892Z,100.00
2023-03-31T05:12:14.796Z,100.00
2023-03-31T05:14:44.493Z,100.00
2023-03-31T05:17:11.550Z,100.00
2023-03-31T05:19:38.944Z,100.00
2023-03-31T05:22:05.885Z,100.00
2023-03-31T05:24:33.857Z,100.00
2023-03-31T05:27:01.845Z,100.00
2023-03-31T05:29:29.683Z,100.00
2023-03-31T05:31:57.095Z,100.00
2023-03-31T05:34:24.006Z,100.00
2023-03-31T05:36:56.202Z,100.00
2023-03-31T05:39:23.999Z,100.00
2023-03-31T05:41:51.631Z,100.00
2023-03-31T05:44:20.714Z,100.00
2023-03-31T05:46:47.712Z,100.00
2023-03-31T05:49:17.121Z,100.00
2023-03-31T05:51:46.739Z,100.00
2023-03-31T05:54:14.253Z,100.00
2023-03-31T05:56:41.269Z,100.00
2023-03-31T05:59:08.516Z,100.00
2023-03-31T06:01:35.608Z,100.00
2023-03-31T06:04:03.171Z,100.00
2023-03-31T06:06:30.871Z,100.00
2023-03-31T06:09:00.042Z,100.00
2023-03-31T06:11:26.802Z,100.00
2023-03-31T06:13:54.296Z,100.00
2023-03-31T06:16:21.678Z,100.00
2023-03-31T06:18:51.230Z,100.00
2023-03-31T06:21:18.730Z,100.00
2023-03-31T06:23:46.488Z,100.00
2023-03-31T06:26:16.935Z,100.00
2023-03-31T06:28:45.376Z,100.00
2023-03-31T06:31:16.108Z,100.00
2023-03-31T06:33:43.972Z,100.00
2023-03-31T06:36:14.004Z,100.00
2023-03-31T06:38:42.390Z,100.00
2023-03-31T06:41:13.213Z,100.00
2023-03-31T06:43:40.538Z,100.00
2023-03-31T06:46:08.265Z,100.00
2023-03-31T06:48:35.936Z,100.00
2023-03-31T06:51:06.261Z,100.00
2023-03-31T06:53:33.461Z,100.00
2023-03-31T06:56:00.803Z,100.00
2023-03-31T06:58:30.589Z,100.00
2023-03-31T07:00:58.718Z,100.00
2023-03-31T07:03:28.826Z,100.00
2023-03-31T07:05:57.772Z,100.00
2023-03-31T07:08:25.194Z,100.00
2023-03-31T07:11:00.497Z,100.00
2023-03-31T07:13:28.246Z,100.00
2023-03-31T07:15:56.194Z,100.00
2023-03-31T07:18:34.860Z,100.00
2023-03-31T07:21:05.086Z,100.00
2023-03-31T07:23:38.691Z,100.00
2023-03-31T07:26:09.998Z,100.00
2023-03-31T07:28:36.845Z,100.00
2023-03-31T07:31:11.688Z,100.00
2023-03-31T07:33:39.930Z,100.00
2023-03-31T07:36:11.889Z,100.00
2023-03-31T07:38:44.197Z,100.00
2023-03-31T07:41:17.642Z,100.00
2023-03-31T07:43:45.717Z,100.00
2023-03-31T07:46:27.392Z,100.00
2023-03-31T07:48:56.838Z,100.00
2023-03-31T07:51:26.074Z,100.00
2023-03-31T07:53:53.728Z,100.00
2023-03-31T07:56:25.049Z,100.00
2023-03-31T07:58:56.881Z,100.00
2023-03-31T08:01:25.992Z,100.00
2023-03-31T08:03:55.646Z,100.00
2023-03-31T08:06:24.792Z,100.00
2023-03-31T08:08:52.080Z,100.00
2023-03-31T08:11:21.122Z,100.00
2023-03-31T08:13:48.206Z,100.00
2023-03-31T08:16:15.796Z,100.00
2023-03-31T08:18:42.726Z,100.00
2023-03-31T08:21:12.379Z,100.00
2023-03-31T08:23:39.199Z,100.00
2023-03-31T08:26:16.390Z,100.00
2023-03-31T08:28:46.507Z,100.00
2023-03-31T08:31:16.465Z,100.00
2023-03-31T08:33:43.599Z,100.00
2023-03-31T08:36:11.581Z,100.00
2023-03-31T08:38:46.230Z,100.00
2023-03-31T08:41:35.163Z,100.00
2023-03-31T08:44:14.332Z,100.00
2023-03-31T08:46:43.236Z,100.00
2023-03-31T08:49:16.938Z,100.00
2023-03-31T08:51:51.434Z,100.00
2023-03-31T08:54:29.778Z,100.00
2023-03-31T08:56:57.247Z,100.00
2023-03-31T08:59:44.347Z,100.00
2023-03-31T09:02:34.660Z,100.00
2023-03-31T09:05:17.713Z,100.00
2023-03-31T09:07:50.582Z,100.00
2023-03-31T09:10:28.919Z,100.00
2023-03-31T09:13:07.569Z,98.95
2023-03-31T09:15:46.387Z,98.46
2023-03-31T09:18:38.325Z,99.19
2023-03-31T09:21:16.293Z,98.96
2023-03-31T09:23:48.613Z,99.21
2023-03-31T09:26:34.855Z,100.00
2023-03-31T09:29:07.164Z,98.20
2023-03-31T09:31:37.310Z,96.84
2023-03-31T09:34:13.349Z,94.81
2023-03-31T09:36:40.843Z,95.21
2023-03-31T09:39:12.996Z,95.37
2023-03-31T09:41:45.750Z,92.29
2023-03-31T09:44:22.526Z,90.75
2023-03-31T09:46:50.523Z,90.08
2023-03-31T09:49:27.213Z,90.17
2023-03-31T09:52:13.672Z,88.59
2023-03-31T09:54:55.386Z,87.94
2023-03-31T09:57:34.853Z,86.04
2023-03-31T10:00:13.989Z,87.41
2023-03-31T10:02:52.085Z,85.96
2023-03-31T10:05:31.894Z,82.15
2023-03-31T10:08:17.027Z,84.12
2023-03-31T10:10:50.521Z,87.34
2023-03-31T10:13:21.936Z,88.99
2023-03-31T10:15:53.305Z,93.57
2023-03-31T10:18:31.605Z,96.10
2023-03-31T10:20:58.525Z,91.05
2023-03-31T10:23:32.286Z,91.53
2023-03-31T10:26:01.684Z,92.38
2023-03-31T10:28:32.301Z,91.69
2023-03-31T10:31:04.374Z,90.69
2023-03-31T10:33:34.658Z,91.57
2023-03-31T10:36:25.564Z,91.94
2023-03-31T10:38:53.985Z,91.16
2023-03-31T10:41:24.022Z,90.62
2023-03-31T10:43:54.150Z,86.84
2023-03-31T10:46:41.436Z,85.97
2023-03-31T10:49:25.353Z,85.65
2023-03-31T10:51:57.753Z,84.66
2023-03-31T10:54:26.238Z,85.50
2023-03-31T10:56:57.715Z,87.01
2023-03-31T10:59:47.031Z,90.00
2023-03-31T11:02:42.253Z,88.41
2023-03-31T11:05:13.638Z,87.40
2023-03-31T11:07:59.791Z,87.46
2023-03-31T11:10:58.890Z,86.75
2023-03-31T11:14:10.027Z,84.66
2023-03-31T11:16:56.541Z,84.52
2023-03-31T11:19:37.983Z,85.56
2023-03-31T11:22:42.489Z,87.25
2023-03-31T11:25:56.849Z,83.73
2023-03-31T11:28:37.610Z,81.48
2023-03-31T11:31:21.512Z,81.05
2023-03-31T11:34:14.065Z,79.50
2023-03-31T11:37:21.530Z,77.15
2023-03-31T11:40:15.187Z,76.49
2023-03-31T11:42:56.096Z,77.61
2023-03-31T11:45:33.743Z,78.39
2023-03-31T11:48:07.513Z,79.92
2023-03-31T11:50:40.115Z,77.55
2023-03-31T11:53:15.512Z,77.01
2023-03-31T11:55:43.570Z,77.28
2023-03-31T11:58:20.729Z,76.79
2023-03-31T12:00:56.230Z,77.38
2023-03-31T12:03:27.009Z,75.64
2023-03-31T12:05:59.539Z,75.98
2023-03-31T12:08:38.174Z,74.29
2023-03-31T12:11:13.892Z,75.97
2023-03-31T12:13:51.238Z,74.91
2023-03-31T12:16:24.010Z,73.33
2023-03-31T12:19:11.447Z,75.02
2023-03-31T12:21:43.502Z,74.85
2023-03-31T12:24:14.553Z,75.43
2023-03-31T12:27:12.425Z,76.14
2023-03-31T12:30:01.432Z,76.35
2023-03-31T12:32:34.878Z,75.50
2023-03-31T12:35:08.436Z,77.92
2023-03-31T12:37:41.147Z,77.73
2023-03-31T12:40:26.740Z,76.81
2023-03-31T12:43:19.992Z,77.50
2023-03-31T12:46:05.136Z,76.89
2023-03-31T12:49:00.935Z,76.22
2023-03-31T12:51:46.767Z,75.42
2023-03-31T12:54:40.763Z,74.72
2023-03-31T12:57:07.487Z,73.41
2023-03-31T12:59:36.910Z,72.59
2023-03-31T13:02:10.088Z,72.04
2023-03-31T13:04:38.271Z,71.86
2023-03-31T13:07:27.392Z,71.34
2023-03-31T13:10:20.198Z,70.94
2023-03-31T13:13:16.578Z,69.21
2023-03-31T13:15:57.760Z,68.59
2023-03-31T13:18:25.793Z,69.56
2023-03-31T13:21:19.089Z,67.77
2023-03-31T13:23:47.638Z,68.51
2023-03-31T13:26:41.908Z,67.77
2023-03-31T13:29:17.580Z,67.93
2023-03-31T13:32:02.457Z,65.78
2023-03-31T13:34:32.540Z,66.78
2023-03-31T13:37:09.361Z,66.55
2023-03-31T13:39:48.850Z,66.16
2023-03-31T13:42:35.034Z,64.60
2023-03-31T13:45:38.817Z,63.95
2023-03-31T13:48:34.163Z,65.23
2023-03-31T13:51:21.256Z,63.67
2023-03-31T13:54:30.518Z,63.69
2023-03-31T13:57:33.145Z,63.79
2023-03-31T14:00:33.211Z,64.11
2023-03-31T14:03:18.515Z,62.44
2023-03-31T14:05:53.811Z,62.90
2023-03-31T14:08:53.428Z,61.99
2023-03-31T14:11:23.402Z,63.79
2023-03-31T14:14:07.577Z,61.72
2023-03-31T14:16:45.359Z,63.11
2023-03-31T14:19:18.613Z,61.97
2023-03-31T14:22:12.337Z,62.00
2023-03-31T14:24:56.542Z,62.04
2023-03-31T14:27:39.276Z,62.23
2023-03-31T14:30:38.559Z,63.46
2023-03-31T14:33:34.445Z,64.14
2023-03-31T14:36:28.421Z,67.88
2023-03-31T14:39:04.148Z,71.19
2023-03-31T14:41:31.591Z,72.57
2023-03-31T14:44:06.556Z,76.06
2023-03-31T14:46:38.819Z,78.95
2023-03-31T14:49:27.681Z,82.36
2023-03-31T14:52:00.048Z,84.43
2023-03-31T14:54:27.213Z,87.60
2023-03-31T14:56:58.479Z,88.29
2023-03-31T14:59:29.357Z,87.13
2023-03-31T15:02:01.780Z,86.77
2023-03-31T15:04:41.450Z,85.85
2023-03-31T15:07:09.827Z,86.77
2023-03-31T15:09:38.182Z,86.50
2023-03-31T15:12:13.627Z,87.74
2023-03-31T15:14:51.876Z,87.19
2023-03-31T15:17:32.453Z,87.27
2023-03-31T15:20:01.296Z,88.29
2023-03-31T15:22:30.714Z,87.61
2023-03-31T15:24:58.442Z,87.15
2023-03-31T15:27:38.115Z,84.04
2023-03-31T15:30:08.032Z,82.64
2023-03-31T15:32:38.898Z,81.73
2023-03-31T15:35:33.252Z,79.58
2023-03-31T15:38:03.301Z,79.14
2023-03-31T15:40:44.244Z,79.43
2023-03-31T15:43:20.292Z,80.15
2023-03-31T15:45:57.219Z,79.53
2023-03-31T15:48:34.515Z,79.62
2023-03-31T15:51:02.698Z,80.60
2023-03-31T15:56:46.649Z,80.01
2023-03-31T15:59:34.274Z,80.77
2023-03-31T16:02:13.585Z,79.89
2023-03-31T16:04:41.995Z,79.00
2023-03-31T16:07:29.978Z,79.63
2023-03-31T16:09:56.878Z,77.96
2023-03-31T16:12:38.103Z,78.74
2023-03-31T16:15:09.812Z,78.46
2023-03-31T16:17:43.189Z,78.17
2023-03-31T16:20:28.621Z,78.90
2023-03-31T16:22:59.635Z,79.09
2023-03-31T16:25:30.698Z,79.58
2023-03-31T16:28:01.784Z,79.15
2023-03-31T16:30:40.753Z,80.54
2023-03-31T16:33:14.740Z,81.74
2023-03-31T16:35:51.044Z,82.98
2023-03-31T16:38:18.933Z,82.81
2023-03-31T16:40:48.309Z,83.83
2023-03-31T16:43:34.045Z,85.16
2023-03-31T16:46:05.952Z,86.22
2023-03-31T16:48:34.391Z,85.87
2023-03-31T16:51:02.623Z,86.37
2023-03-31T16:53:34.007Z,87.06
2023-03-31T16:56:00.993Z,89.11
2023-03-31T16:58:29.426Z,90.10
2023-03-31T17:01:02.477Z,90.52
2023-03-31T17:03:29.841Z,91.27
2023-03-31T17:05:59.428Z,90.58
2023-03-31T17:08:27.871Z,92.07
2023-03-31T17:11:04.089Z,92.15
2023-03-31T17:13:32.504Z,92.07
2023-03-31T17:18:47.275Z,94.85
2023-03-31T17:21:19.414Z,96.06
2023-03-31T17:23:49.886Z,96.95
2023-03-31T17:26:17.959Z,98.62
2023-03-31T17:28:45.650Z,99.07
2023-03-31T17:31:21.453Z,99.76
2023-03-31T17:33:51.760Z,100.00
2023-03-31T17:36:19.465Z,100.00
2023-03-31T17:38:47.125Z,100.00
2023-03-31T17:41:14.353Z,100.00
2023-03-31T17:43:45.606Z,100.00
2023-03-31T17:46:13.442Z,100.00
2023-03-31T17:48:50.425Z,100.00
2023-03-31T17:51:19.630Z,100.00
2023-03-31T17:53:48.123Z,100.00
2023-03-31T17:56:16.825Z,100.00
2023-03-31T17:58:44.214Z,100.00
2023-03-31T18:01:12.586Z,100.00
2023-03-31T18:03:40.448Z,100.00
2023-03-31T18:06:11.179Z,100.00
2023-03-31T18:08:41.132Z,100.00
2023-03-31T18:11:09.290Z,99.00
2023-03-31T18:13:37.492Z,99.49
2023-03-31T18:16:09.639Z,99.56
2023-03-31T18:18:37.908Z,99.93
2023-03-31T18:21:10.250Z,99.40
2023-03-31T18:23:38.056Z,99.48
2023-03-31T18:26:07.205Z,99.75
2023-03-31T18:28:34.407Z,98.80
2023-03-31T18:31:05.908Z,99.27
2023-03-31T18:33:32.809Z,99.61
2023-03-31T18:36:00.732Z,100.00
2023-03-31T18:38:28.244Z,100.00
2023-03-31T18:40:55.317Z,100.00
2023-03-31T18:43:24.590Z,100.00
2023-03-31T18:45:55.200Z,100.00
2023-03-31T18:48:23.184Z,100.00
2023-03-31T18:50:54.246Z,97.99
2023-03-31T18:53:23.132Z,97.06
2023-03-31T18:55:58.567Z,96.17
2023-03-31T18:58:30.878Z,95.56
2023-03-31T19:00:58.820Z,94.59
2023-03-31T19:03:28.573Z,92.73
2023-03-31T19:06:10.957Z,92.38
2023-03-31T19:08:38.731Z,91.35
2023-03-31T19:11:11.743Z,92.30
2023-03-31T19:13:40.082Z,91.96
2023-03-31T19:16:06.973Z,92.35
2023-03-31T19:18:34.387Z,93.12
2023-03-31T19:21:02.026Z,92.94
2023-03-31T19:23:31.039Z,93.85
2023-03-31T19:25:59.515Z,95.35
2023-03-31T19:28:27.789Z,96.76
2023-03-31T19:30:58.681Z,97.77
2023-03-31T19:33:27.681Z,99.39
2023-03-31T19:35:54.982Z,100.00
2023-03-31T19:38:22.634Z,100.00
2023-03-31T19:40:50.045Z,100.00
2023-03-31T19:43:23.979Z,100.00
2023-03-31T19:45:56.936Z,100.00
2023-03-31T19:48:26.321Z,100.00
2023-03-31T19:50:56.237Z,100.00
2023-03-31T19:53:23.917Z,100.00
2023-03-31T19:56:10.845Z,100.00
2023-03-31T19:58:38.541Z,100.00
2023-03-31T20:01:08.578Z,100.00
2023-03-31T20:03:36.073Z,100.00
2023-03-31T20:06:12.255Z,100.00
2023-03-31T20:08:42.531Z,100.00
2023-03-31T20:11:12.557Z,100.00
2023-03-31T20:13:42.071Z,100.00
2023-03-31T20:16:14.142Z,100.00
2023-03-31T20:18:49.480Z,100.00
2023-03-31T20:21:20.172Z,100.00
2023-03-31T20:23:47.923Z,100.00
2023-03-31T20:26:18.945Z,100.00
2023-03-31T20:28:47.967Z,100.00
2023-03-31T20:31:21.295Z,100.00
2023-03-31T20:33:49.107Z,100.00
2023-03-31T20:36:19.564Z,100.00
2023-03-31T20:38:51.273Z,100.00
2023-03-31T20:41:21.196Z,100.00
2023-03-31T20:43:51.054Z,100.00
2023-03-31T20:46:18.540Z,100.00
2023-03-31T20:48:48.128Z,100.00
2023-03-31T20:51:18.511Z,100.00
2023-03-31T20:53:52.779Z,100.00
2023-03-31T20:56:35.479Z,100.00
2023-03-31T20:59:04.857Z,100.00
2023-03-31T21:01:34.131Z,100.00
2023-03-31T21:04:02.946Z,100.00
2023-03-31T21:06:38.268Z,100.00
2023-03-31T21:09:05.829Z,100.00
2023-03-31T21:11:33.093Z,100.00
2023-03-31T21:14:00.925Z,100.00
2023-03-31T21:16:27.993Z,100.00
2023-03-31T21:18:55.091Z,100.00
2023-03-31T21:21:24.548Z,100.00
2023-03-31T21:23:53.801Z,100.00
2023-03-31T21:26:21.924Z,100.00
2023-03-31T21:28:54.234Z,100.00
2023-03-31T21:31:24.357Z,100.00
2023-03-31T21:33:52.940Z,100.00
2023-03-31T21:36:23.139Z,100.00
2023-03-31T21:38:53.042Z,100.00
2023-03-31T21:41:23.104Z,100.00
2023-03-31T21:43:51.322Z,100.00
2023-03-31T21:46:24.501Z,100.00
2023-03-31T21:48:51.584Z,100.00
2023-03-31T21:51:22.189Z,100.00
2023-03-31T21:53:53.205Z,100.00
2023-03-31T21:56:20.572Z,100.00
2023-03-31T21:58:47.684Z,100.00
2023-03-31T22:01:14.874Z,100.00
2023-03-31T22:03:42.718Z,100.00
2023-03-31T22:06:10.583Z,100.00
2023-03-31T22:08:38.752Z,100.00
2023-03-31T22:11:08.238Z,100.00
2023-03-31T22:13:35.856Z,100.00
2023-03-31T22:16:04.138Z,100.00
2023-03-31T22:18:31.307Z,100.00
2023-03-31T22:21:00.966Z,100.00
2023-03-31T22:23:28.497Z,100.00
2023-03-31T22:25:55.872Z,100.00
2023-03-31T22:28:23.145Z,100.00
2023-03-31T22:30:50.564Z,100.00
2023-03-31T22:33:17.530Z,100.00
2023-03-31T22:35:45.166Z,100.00
2023-03-31T22:38:13.994Z,100.00
2023-03-31T22:40:41.012Z,100.00
2023-03-31T22:43:08.662Z,100.00
2023-03-31T22:45:37.838Z,100.00
2023-03-31T22:48:09.710Z,100.00
2023-03-31T22:50:39.547Z,100.00
2023-03-31T22:53:08.581Z,100.00
2023-03-31T22:55:44.221Z,100.00
2023-03-31T22:58:24.513Z,100.00
2023-03-31T23:00:55.983Z,100.00
2023-03-31T23:03:23.402Z,100.00
2023-03-31T23:05:50.996Z,100.00
2023-03-31T23:08:19.424Z,100.00
2023-03-31T23:10:57.962Z,100.00
2023-03-31T23:13:27.399Z,100.00
2023-03-31T23:15:56.198Z,100.00
2023-03-31T23:18:24.334Z,100.00
2023-03-31T23:20:52.414Z,100.00
2023-03-31T23:23:19.797Z,100.00
2023-03-31T23:25:46.877Z,100.00
2023-03-31T23:28:14.599Z,100.00
2023-03-31T23:30:41.786Z,100.00
2023-03-31T23:33:09.129Z,100.00
2023-03-31T23:35:38.893Z,100.00
2023-03-31T23:38:07.422Z,100.00
2023-03-31T23:40:37.431Z,100.00
2023-03-31T23:43:05.004Z,100.00
2023-03-31T23:45:32.425Z,100.00
2023-03-31T23:48:00.464Z,100.00
2023-03-31T23:50:31.388Z,100.00
2023-03-31T23:52:59.556Z,100.00
2023-03-31T23:55:27.910Z,100.00
2023-03-31T23:57:56.582Z,100.00
